Time,TemperatureF,DewpointF,PressureIn,WindDirection,WindDirectionDegrees,WindSpeedMPH,WindSpeedGustMPH,Humidity,HourlyPrecipIn,Conditions,Clouds,dailyrainin,SoftwareType,DateUTC
2013-02-23 00:00:00,67.9,65.5,30.26,SSW,202,0.0,0.0,92,0.00,,,0.00,WUHU21623XXSP,2013-02-23 05:00:00,
2013-02-23 00:05:00,67.9,65.5,30.27,South,180,0.0,0.0,92,0.00,,,0.00,WUHU21623XXSP,2013-02-23 05:05:00,
2013-02-23 00:10:00,67.9,65.5,30.26,South,180,0.0,0.0,92,0.00,,,0.00,WUHU21623XXSP,2013-02-23 05:10:00,
2013-02-23 00:15:00,67.9,65.5,30.26,South,180,0.0,0.0,92,0.00,,,0.00,WUHU21623XXSP,2013-02-23 05:15:00,
2013-02-23 00:20:00,67.9,65.5,30.26,SSE,157,0.0,0.0,92,0.00,,,0.00,WUHU21623XXSP,2013-02-23 05:20:00,
2013-02-23 00:25:00,67.9,65.5,30.26,SSE,157,0.0,0.0,92,0.00,,,0.00,WUHU21623XXSP,2013-02-23 05:25:00,
2013-02-23 00:30:00,67.7,65.3,30.25,SSE,157,0.0,0.0,92,0.00,,,0.00,WUHU21623XXSP,2013-02-23 05:30:00,
2013-02-23 00:35:00,67.7,65.3,30.25,SSE,157,0.0,0.0,92,0.00,,,0.00,WUHU21623XXSP,2013-02-23 05:35:00,
2013-02-23 00:40:00,67.7,65.3,30.25,SSE,157,0.0,0.0,92,0.00,,,0.00,WUHU21623XXSP,2013-02-23 05:40:00,
2013-02-23 00:45:00,67.7,65.3,30.25,South,180,0.0,0.0,92,0.00,,,0.00,WUHU21623XXSP,2013-02-23 05:45:00,
2013-02-23 00:50:00,67.5,65.1,30.25,South,180,0.0,0.0,92,0.00,,,0.00,WUHU21623XXSP,2013-02-23 05:50:00,
2013-02-23 00:55:00,67.5,65.1,30.25,South,180,0.0,0.0,92,0.00,,,0.00,WUHU21623XXSP,2013-02-23 05:55:00,
2013-02-23 01:00:00,67.5,65.1,30.24,South,180,0.0,0.0,92,0.00,,,0.00,WUHU21623XXSP,2013-02-23 06:00:00,
2013-02-23 01:05:00,67.5,65.1,30.24,SSW,202,0.0,0.0,92,0.00,,,0.00,WUHU21623XXSP,2013-02-23 06:05:00,
2013-02-23 01:10:00,67.5,65.1,30.24,SSE,157,0.0,0.0,92,0.00,,,0.00,WUHU21623XXSP,2013-02-23 06:10:00,
2013-02-23 01:15:00,67.5,65.1,30.24,SSW,202,0.0,0.0,92,0.00,,,0.00,WUHU21623XXSP,2013-02-23 06:15:00,
2013-02-23 01:20:00,67.5,65.1,30.24,SSE,157,0.0,0.0,92,0.00,,,0.00,WUHU21623XXSP,2013-02-23 06:20:00,
2013-02-23 01:25:00,67.5,65.1,30.24,SSE,157,0.0,0.0,92,0.00,,,0.00,WUHU21623XXSP,2013-02-23 06:25:00,
2013-02-23 01:30:00,67.5,65.1,30.24,South,180,0.0,0.0,92,0.00,,,0.00,WUHU21623XXSP,2013-02-23 06:30:00,
2013-02-23 01:35:00,67.7,65.6,30.24,South,180,0.0,0.0,93,0.00,,,0.00,WUHU21623XXSP,2013-02-23 06:35:00,
2013-02-23 01:40:00,67.7,65.6,30.23,SSE,157,0.0,0.0,93,0.00,,,0.00,WUHU21623XXSP,2013-02-23 06:40:00,
2013-02-23 01:45:00,67.9,65.8,30.23,SSE,157,0.0,0.0,93,0.00,,,0.00,WUHU21623XXSP,2013-02-23 06:45:00,
2013-02-23 01:50:00,67.9,65.8,30.23,South,180,0.0,0.0,93,0.00,,,0.00,WUHU21623XXSP,2013-02-23 06:50:00,
2013-02-23 01:55:00,67.9,65.8,30.23,SE,135,0.0,0.0,93,0.00,,,0.00,WUHU21623XXSP,2013-02-23 06:55:00,
2013-02-23 02:00:00,68.1,66.0,30.23,South,180,0.0,0.0,93,0.00,,,0.00,WUHU21623XXSP,2013-02-23 07:00:00,
2013-02-23 02:05:00,68.1,66.0,30.23,SSE,157,0.0,0.0,93,0.00,,,0.00,WUHU21623XXSP,2013-02-23 07:05:00,
2013-02-23 02:10:00,68.3,66.2,30.23,SSE,157,0.0,0.0,93,0.00,,,0.00,WUHU21623XXSP,2013-02-23 07:10:00,
2013-02-23 02:16:00,68.4,66.3,30.23,SSE,157,0.0,0.0,93,0.00,,,0.00,WUHU21623XXSP,2013-02-23 07:16:00,
2013-02-23 02:21:00,68.4,66.3,30.23,South,180,0.0,0.0,93,0.00,,,0.00,WUHU21623XXSP,2013-02-23 07:21:00,
2013-02-23 02:26:00,68.4,66.3,30.23,South,180,0.0,0.0,93,0.00,,,0.00,WUHU21623XXSP,2013-02-23 07:26:00,
2013-02-23 02:31:00,68.4,66.3,30.22,South,180,0.0,0.0,93,0.00,,,0.00,WUHU21623XXSP,2013-02-23 07:31:00,
2013-02-23 02:36:00,68.4,66.3,30.22,SSW,202,0.0,0.0,93,0.00,,,0.00,WUHU21623XXSP,2013-02-23 07:36:00,
2013-02-23 02:41:00,68.4,66.3,30.22,SSE,157,0.0,0.0,93,0.00,,,0.00,WUHU21623XXSP,2013-02-23 07:41:00,
2013-02-23 02:46:00,68.4,66.3,30.22,SE,135,0.0,0.0,93,0.00,,,0.00,WUHU21623XXSP,2013-02-23 07:46:00,
2013-02-23 02:51:00,68.4,66.3,30.23,SSW,202,0.0,0.0,93,0.00,,,0.00,WUHU21623XXSP,2013-02-23 07:51:00,
2013-02-23 02:56:00,68.3,66.2,30.22,South,180,0.0,0.0,93,0.00,,,0.00,WUHU21623XXSP,2013-02-23 07:56:00,
2013-02-23 03:01:00,68.3,66.2,30.22,South,180,0.0,0.0,93,0.00,,,0.00,WUHU21623XXSP,2013-02-23 08:01:00,
2013-02-23 03:06:00,68.3,66.2,30.23,SE,135,0.0,0.0,93,0.00,,,0.00,WUHU21623XXSP,2013-02-23 08:06:00,
2013-02-23 03:11:00,68.1,66.0,30.22,SE,135,0.0,0.0,93,0.00,,,0.00,WUHU21623XXSP,2013-02-23 08:11:00,
2013-02-23 03:16:00,68.1,66.0,30.22,SSE,157,0.0,0.0,93,0.00,,,0.00,WUHU21623XXSP,2013-02-23 08:16:00,
2013-02-23 03:21:00,67.9,65.8,30.22,South,180,0.0,0.0,93,0.00,,,0.00,WUHU21623XXSP,2013-02-23 08:21:00,
2013-02-23 03:26:00,67.9,65.8,30.22,SE,135,0.0,0.0,93,0.00,,,0.00,WUHU21623XXSP,2013-02-23 08:26:00,
2013-02-23 03:31:00,67.9,65.8,30.22,SSE,157,0.0,0.0,93,0.00,,,0.00,WUHU21623XXSP,2013-02-23 08:31:00,
2013-02-23 03:36:00,68.1,66.0,30.21,SSE,157,0.0,0.0,93,0.00,,,0.00,WUHU21623XXSP,2013-02-23 08:36:00,
2013-02-23 03:41:00,68.3,66.5,30.22,SSE,157,0.0,0.0,94,0.00,,,0.00,WUHU21623XXSP,2013-02-23 08:41:00,
2013-02-23 03:46:00,68.4,66.6,30.21,SE,135,0.0,0.0,94,0.00,,,0.00,WUHU21623XXSP,2013-02-23 08:46:00,
2013-02-23 03:51:00,68.6,66.8,30.21,ESE,112,0.0,0.0,94,0.00,,,0.00,WUHU21623XXSP,2013-02-23 08:51:00,
2013-02-23 03:56:00,68.6,66.8,30.21,South,180,0.0,0.0,94,0.00,,,0.00,WUHU21623XXSP,2013-02-23 08:56:00,
2013-02-23 04:01:00,68.6,66.8,30.21,South,180,0.0,0.0,94,0.00,,,0.00,WUHU21623XXSP,2013-02-23 09:01:00,
2013-02-23 04:06:00,68.6,66.8,30.21,SSE,157,0.0,0.0,94,0.00,,,0.00,WUHU21623XXSP,2013-02-23 09:06:00,
2013-02-23 04:11:00,68.6,66.8,30.21,South,180,0.0,0.0,94,0.00,,,0.00,WUHU21623XXSP,2013-02-23 09:11:00,
2013-02-23 04:16:00,68.6,66.8,30.21,South,180,0.0,0.0,94,0.00,,,0.00,WUHU21623XXSP,2013-02-23 09:16:00,
2013-02-23 04:21:00,68.8,67.0,30.21,South,180,0.0,0.0,94,0.00,,,0.00,WUHU21623XXSP,2013-02-23 09:21:00,
2013-02-23 04:26:00,68.8,67.0,30.21,South,180,0.0,0.0,94,0.00,,,0.00,WUHU21623XXSP,2013-02-23 09:26:00,
2013-02-23 04:31:00,69.0,67.2,30.21,SE,135,0.0,0.0,94,0.00,,,0.00,WUHU21623XXSP,2013-02-23 09:31:00,
2013-02-23 04:36:00,69.0,67.2,30.20,South,180,0.0,0.0,94,0.00,,,0.00,WUHU21623XXSP,2013-02-23 09:36:00,
2013-02-23 04:41:00,69.0,67.2,30.20,West,270,0.0,0.0,94,0.00,,,0.00,WUHU21623XXSP,2013-02-23 09:41:00,
2013-02-23 04:46:00,69.0,67.2,30.21,South,180,0.0,0.0,94,0.00,,,0.00,WUHU21623XXSP,2013-02-23 09:46:00,
2013-02-23 04:51:00,69.2,67.1,30.21,South,180,0.0,0.0,93,0.00,,,0.00,WUHU21623XXSP,2013-02-23 09:51:00,
2013-02-23 04:56:00,69.2,67.1,30.20,ESE,112,0.0,0.0,93,0.00,,,0.00,WUHU21623XXSP,2013-02-23 09:56:00,
2013-02-23 05:01:00,69.2,67.1,30.21,SSW,202,0.0,0.0,93,0.00,,,0.00,WUHU21623XXSP,2013-02-23 10:01:00,
2013-02-23 05:06:00,69.2,67.1,30.20,South,180,0.0,0.0,93,0.00,,,0.00,WUHU21623XXSP,2013-02-23 10:06:00,
2013-02-23 05:11:00,69.2,67.1,30.20,SSE,157,0.0,0.0,93,0.00,,,0.00,WUHU21623XXSP,2013-02-23 10:11:00,
2013-02-23 05:16:00,69.2,67.1,30.20,SSE,157,0.0,0.0,93,0.00,,,0.00,WUHU21623XXSP,2013-02-23 10:16:00,
2013-02-23 05:22:00,69.2,67.1,30.20,South,180,0.0,0.0,93,0.00,,,0.00,WUHU21623XXSP,2013-02-23 10:22:00,
2013-02-23 05:27:00,69.2,67.1,30.20,SSE,157,0.0,0.0,93,0.00,,,0.00,WUHU21623XXSP,2013-02-23 10:27:00,
2013-02-23 05:32:00,69.2,67.1,30.20,SSE,157,0.0,0.0,93,0.00,,,0.00,WUHU21623XXSP,2013-02-23 10:32:00,
2013-02-23 05:37:00,69.2,67.1,30.20,SE,135,0.0,0.0,93,0.00,,,0.00,WUHU21623XXSP,2013-02-23 10:37:00,
2013-02-23 05:42:00,69.2,67.1,30.20,South,180,0.0,0.0,93,0.00,,,0.00,WUHU21623XXSP,2013-02-23 10:42:00,
2013-02-23 05:47:00,69.2,67.1,30.20,SSE,157,0.0,0.0,93,0.00,,,0.00,WUHU21623XXSP,2013-02-23 10:47:00,
2013-02-23 05:52:00,69.0,66.9,30.19,South,180,0.0,0.0,93,0.00,,,0.00,WUHU21623XXSP,2013-02-23 10:52:00,
2013-02-23 05:57:00,69.0,66.9,30.20,South,180,0.0,0.0,93,0.00,,,0.00,WUHU21623XXSP,2013-02-23 10:57:00,
2013-02-23 06:02:00,69.0,66.9,30.20,SSE,157,0.0,0.0,93,0.00,,,0.00,WUHU21623XXSP,2013-02-23 11:02:00,
2013-02-23 06:07:00,69.0,66.9,30.21,South,180,0.0,0.0,93,0.00,,,0.00,WUHU21623XXSP,2013-02-23 11:07:00,
2013-02-23 06:12:00,69.0,66.9,30.21,SSE,157,0.0,0.0,93,0.00,,,0.00,WUHU21623XXSP,2013-02-23 11:12:00,
2013-02-23 06:17:00,69.2,67.4,30.21,SSE,157,0.0,0.0,94,0.00,,,0.00,WUHU21623XXSP,2013-02-23 11:17:00,
2013-02-23 06:22:00,69.2,67.4,30.21,SSE,157,0.0,0.0,94,0.00,,,0.00,WUHU21623XXSP,2013-02-23 11:22:00,
2013-02-23 06:27:00,69.2,67.4,30.21,SSE,157,0.0,0.0,94,0.00,,,0.00,WUHU21623XXSP,2013-02-23 11:27:00,
2013-02-23 06:32:00,69.2,67.4,30.21,South,180,0.0,0.0,94,0.00,,,0.00,WUHU21623XXSP,2013-02-23 11:32:00,
2013-02-23 06:37:00,69.2,67.4,30.21,SSE,157,0.0,0.0,94,0.00,,,0.00,WUHU21623XXSP,2013-02-23 11:37:00,
2013-02-23 06:42:00,69.3,67.5,30.21,South,180,0.0,0.0,94,0.00,,,0.00,WUHU21623XXSP,2013-02-23 11:42:00,
2013-02-23 06:47:00,69.3,67.5,30.21,SSE,157,0.0,0.0,94,0.00,,,0.00,WUHU21623XXSP,2013-02-23 11:47:00,
2013-02-23 06:52:00,69.3,67.5,30.21,SSE,157,0.0,0.0,94,0.00,,,0.00,WUHU21623XXSP,2013-02-23 11:52:00,
2013-02-23 06:57:00,69.3,67.5,30.21,SSW,202,0.0,0.0,94,0.00,,,0.00,WUHU21623XXSP,2013-02-23 11:57:00,
2013-02-23 07:02:00,69.3,67.5,30.21,South,180,0.0,0.0,94,0.00,,,0.00,WUHU21623XXSP,2013-02-23 12:02:00,
2013-02-23 07:07:00,69.3,67.5,30.21,South,180,0.0,0.0,94,0.00,,,0.00,WUHU21623XXSP,2013-02-23 12:07:00,
2013-02-23 07:12:00,69.3,67.5,30.22,SSE,157,0.0,0.0,94,0.00,,,0.00,WUHU21623XXSP,2013-02-23 12:12:00,
2013-02-23 07:17:00,69.3,67.5,30.22,SSW,202,0.0,0.0,94,0.00,,,0.00,WUHU21623XXSP,2013-02-23 12:17:00,
2013-02-23 07:22:00,69.3,67.5,30.22,SE,135,0.0,0.0,94,0.00,,,0.00,WUHU21623XXSP,2013-02-23 12:22:00,
2013-02-23 07:27:00,69.3,67.5,30.22,SSE,157,0.0,0.0,94,0.00,,,0.00,WUHU21623XXSP,2013-02-23 12:27:00,
2013-02-23 07:32:00,69.5,67.7,30.22,South,180,0.0,0.0,94,0.00,,,0.00,WUHU21623XXSP,2013-02-23 12:32:00,
2013-02-23 07:37:00,69.5,67.7,30.22,SSE,157,0.0,0.0,94,0.00,,,0.00,WUHU21623XXSP,2013-02-23 12:37:00,
2013-02-23 07:42:00,69.7,67.9,30.22,South,180,0.0,0.0,94,0.00,,,0.00,WUHU21623XXSP,2013-02-23 12:42:00,
2013-02-23 07:47:00,69.9,68.1,30.22,SSE,157,0.0,0.0,94,0.00,,,0.00,WUHU21623XXSP,2013-02-23 12:47:00,
2013-02-23 07:52:00,69.9,68.1,30.22,SSE,157,0.0,0.0,94,0.00,,,0.00,WUHU21623XXSP,2013-02-23 12:52:00,
2013-02-23 07:57:00,70.2,68.4,30.23,South,180,0.0,0.0,94,0.00,,,0.00,WUHU21623XXSP,2013-02-23 12:57:00,
2013-02-23 08:02:00,70.2,68.1,30.23,WSW,247,0.0,0.0,93,0.00,,,0.00,WUHU21623XXSP,2013-02-23 13:02:00,
2013-02-23 08:07:00,70.4,68.2,30.23,SW,225,0.0,0.0,93,0.00,,,0.00,WUHU21623XXSP,2013-02-23 13:07:00,
2013-02-23 08:12:00,70.4,68.2,30.24,South,180,0.0,0.0,93,0.00,,,0.00,WUHU21623XXSP,2013-02-23 13:12:00,
2013-02-23 08:17:00,70.6,68.4,30.23,SE,135,0.0,0.0,93,0.00,,,0.00,WUHU21623XXSP,2013-02-23 13:17:00,
2013-02-23 08:22:00,70.8,68.6,30.24,SSE,157,0.0,0.0,93,0.00,,,0.00,WUHU21623XXSP,2013-02-23 13:22:00,
2013-02-23 08:27:00,70.8,69.0,30.24,SE,135,0.0,0.0,94,0.00,,,0.00,WUHU21623XXSP,2013-02-23 13:27:00,
2013-02-23 08:32:00,71.0,69.2,30.24,SSW,202,0.0,0.0,94,0.00,,,0.00,WUHU21623XXSP,2013-02-23 13:32:00,
2013-02-23 08:37:00,71.0,69.2,30.24,SSW,202,0.0,0.0,94,0.00,,,0.00,WUHU21623XXSP,2013-02-23 13:37:00,
2013-02-23 08:42:00,71.1,69.3,30.24,SSW,202,0.0,0.0,94,0.00,,,0.00,WUHU21623XXSP,2013-02-23 13:42:00,
2013-02-23 08:47:00,71.1,69.3,30.24,SSE,157,0.0,0.0,94,0.00,,,0.00,WUHU21623XXSP,2013-02-23 13:47:00,
2013-02-23 08:52:00,71.3,69.1,30.24,WSW,247,0.0,0.0,93,0.00,,,0.00,WUHU21623XXSP,2013-02-23 13:52:00,
2013-02-23 08:57:00,71.3,69.1,30.24,WSW,247,0.0,0.0,93,0.00,,,0.00,WUHU21623XXSP,2013-02-23 13:57:00,
2013-02-23 09:02:00,71.3,69.1,30.24,SSE,157,0.0,0.0,93,0.00,,,0.00,WUHU21623XXSP,2013-02-23 14:02:00,
2013-02-23 09:07:00,71.3,69.1,30.24,SW,225,0.0,0.0,93,0.00,,,0.00,WUHU21623XXSP,2013-02-23 14:07:00,
2013-02-23 09:12:00,71.3,69.1,30.24,SSW,202,0.0,0.0,93,0.00,,,0.00,WUHU21623XXSP,2013-02-23 14:12:00,
2013-02-23 09:17:00,71.3,69.1,30.25,SSE,157,0.0,0.0,93,0.00,,,0.00,WUHU21623XXSP,2013-02-23 14:17:00,
2013-02-23 09:22:00,71.3,69.1,30.25,West,270,0.0,0.0,93,0.00,,,0.00,WUHU21623XXSP,2013-02-23 14:22:00,
2013-02-23 09:27:00,71.1,68.9,30.24,South,180,0.0,0.0,93,0.00,,,0.00,WUHU21623XXSP,2013-02-23 14:27:00,
2013-02-23 09:32:00,71.1,68.9,30.25,SSW,202,0.0,0.0,93,0.00,,,0.00,WUHU21623XXSP,2013-02-23 14:32:00,
2013-02-23 09:37:00,71.1,68.9,30.25,West,270,0.0,0.0,93,0.00,,,0.00,WUHU21623XXSP,2013-02-23 14:37:00,
2013-02-23 09:42:00,71.0,68.8,30.24,SSE,157,0.0,0.0,93,0.00,,,0.00,WUHU21623XXSP,2013-02-23 14:42:00,
2013-02-23 09:47:00,70.8,68.6,30.24,South,180,0.0,0.0,93,0.00,,,0.00,WUHU21623XXSP,2013-02-23 14:47:00,
2013-02-23 09:52:00,70.8,68.6,30.25,SSW,202,0.0,0.0,93,0.00,,,0.00,WUHU21623XXSP,2013-02-23 14:52:00,
2013-02-23 09:57:00,71.1,68.9,30.24,South,180,0.0,0.0,93,0.00,,,0.00,WUHU21623XXSP,2013-02-23 14:57:00,
2013-02-23 10:02:00,71.7,69.5,30.24,SSE,157,0.0,0.0,93,0.00,,,0.00,WUHU21623XXSP,2013-02-23 15:02:00,
2013-02-23 10:07:00,72.2,70.0,30.24,SSW,202,0.0,0.0,93,0.00,,,0.00,WUHU21623XXSP,2013-02-23 15:07:00,
2013-02-23 10:12:00,72.6,70.1,30.24,SSW,202,0.0,0.0,92,0.00,,,0.00,WUHU21623XXSP,2013-02-23 15:12:00,
2013-02-23 10:17:00,73.1,70.6,30.25,WSW,247,0.0,0.0,92,0.00,,,0.00,WUHU21623XXSP,2013-02-23 15:17:00,
2013-02-23 10:22:00,73.8,71.3,30.24,South,180,0.0,0.0,92,0.00,,,0.00,WUHU21623XXSP,2013-02-23 15:22:00,
2013-02-23 10:27:00,74.4,71.6,30.24,SW,225,0.0,0.0,91,0.00,,,0.00,WUHU21623XXSP,2013-02-23 15:27:00,
2013-02-23 10:32:00,75.1,72.0,30.24,SSW,202,0.0,0.0,90,0.00,,,0.00,WUHU21623XXSP,2013-02-23 15:32:00,
2013-02-23 10:38:00,75.8,72.3,30.24,SW,225,0.0,0.0,89,0.00,,,0.00,WUHU21623XXSP,2013-02-23 15:38:00,
2013-02-23 10:43:00,76.4,72.3,30.24,SSE,157,0.0,0.0,87,0.00,,,0.00,WUHU21623XXSP,2013-02-23 15:43:00,
2013-02-23 10:48:00,77.1,73.0,30.24,South,180,0.0,0.0,87,0.00,,,0.00,WUHU21623XXSP,2013-02-23 15:48:00,
2013-02-23 10:53:00,78.0,73.2,30.24,WSW,247,0.0,0.0,85,0.00,,,0.00,WUHU21623XXSP,2013-02-23 15:53:00,
2013-02-23 10:58:00,78.3,73.1,30.24,SSE,157,0.0,0.0,84,0.00,,,0.00,WUHU21623XXSP,2013-02-23 15:58:00,
2013-02-23 11:03:00,78.5,72.6,30.24,SW,225,0.0,0.0,82,0.00,,,0.00,WUHU21623XXSP,2013-02-23 16:03:00,
2013-02-23 11:08:00,78.3,72.4,30.24,WSW,247,0.0,0.0,82,0.00,,,0.00,WUHU21623XXSP,2013-02-23 16:08:00,
2013-02-23 11:13:00,78.3,72.4,30.24,SSW,202,0.0,0.0,82,0.00,,,0.00,WUHU21623XXSP,2013-02-23 16:13:00,
2013-02-23 11:17:00,78.5,72.6,30.24,South,180,0.0,0.0,82,0.00,,,0.00,WUHU21623XXSP,2013-02-23 16:17:00,
2013-02-23 11:23:00,79.1,72.9,30.24,WSW,247,0.0,0.0,81,0.00,,,0.00,WUHU21623XXSP,2013-02-23 16:23:00,
2013-02-23 11:28:00,79.2,72.6,30.24,SSW,202,0.0,0.0,80,0.00,,,0.00,WUHU21623XXSP,2013-02-23 16:28:00,
2013-02-23 11:33:00,79.2,72.6,30.24,SSW,202,0.0,0.0,80,0.00,,,0.00,WUHU21623XXSP,2013-02-23 16:33:00,
2013-02-23 11:38:00,79.4,72.4,30.24,South,180,0.0,0.0,79,0.00,,,0.00,WUHU21623XXSP,2013-02-23 16:38:00,
2013-02-23 11:43:00,79.8,72.5,30.24,SE,135,0.0,0.0,78,0.00,,,0.00,WUHU21623XXSP,2013-02-23 16:43:00,
2013-02-23 11:48:00,79.8,72.5,30.24,SSE,157,0.0,0.0,78,0.00,,,0.00,WUHU21623XXSP,2013-02-23 16:48:00,
2013-02-23 11:53:00,79.4,72.1,30.24,WSW,247,0.0,0.0,78,0.00,,,0.00,WUHU21623XXSP,2013-02-23 16:53:00,
2013-02-23 11:58:00,79.8,72.5,30.24,SSW,202,0.0,0.0,78,0.00,,,0.00,WUHU21623XXSP,2013-02-23 16:58:00,
2013-02-23 12:03:00,79.8,72.1,30.24,SSE,157,0.0,0.0,77,0.00,,,0.00,WUHU21623XXSP,2013-02-23 17:03:00,
2013-02-23 12:08:00,79.8,72.1,30.24,SSW,202,0.0,0.0,77,0.00,,,0.00,WUHU21623XXSP,2013-02-23 17:08:00,
2013-02-23 12:13:00,79.4,71.7,30.24,SSW,202,0.0,0.0,77,0.00,,,0.00,WUHU21623XXSP,2013-02-23 17:13:00,
2013-02-23 12:18:00,79.1,71.4,30.23,WSW,247,0.0,0.0,77,0.00,,,0.00,WUHU21623XXSP,2013-02-23 17:18:00,
2013-02-23 12:23:00,78.7,71.4,30.23,South,180,0.0,0.0,78,0.00,,,0.00,WUHU21623XXSP,2013-02-23 17:23:00,
2013-02-23 12:28:00,78.5,71.2,30.23,WNW,292,0.0,0.0,78,0.00,,,0.00,WUHU21623XXSP,2013-02-23 17:28:00,
2013-02-23 12:33:00,78.3,71.4,30.23,South,180,0.0,0.0,79,0.00,,,0.00,WUHU21623XXSP,2013-02-23 17:33:00,
2013-02-23 12:38:00,78.5,71.6,30.22,West,270,0.0,0.0,79,0.00,,,0.00,WUHU21623XXSP,2013-02-23 17:38:00,
2013-02-23 12:43:00,78.7,71.8,30.23,West,270,0.0,0.0,79,0.00,,,0.00,WUHU21623XXSP,2013-02-23 17:43:00,
2013-02-23 12:48:00,79.2,72.2,30.22,West,270,0.0,0.0,79,0.00,,,0.00,WUHU21623XXSP,2013-02-23 17:48:00,
2013-02-23 12:53:00,79.2,71.9,30.22,SSW,202,0.0,0.0,78,0.00,,,0.00,WUHU21623XXSP,2013-02-23 17:53:00,
2013-02-23 12:58:00,78.9,71.6,30.22,WSW,247,0.0,0.0,78,0.00,,,0.00,WUHU21623XXSP,2013-02-23 17:58:00,
2013-02-23 13:03:00,79.4,72.1,30.21,SSW,202,0.0,0.0,78,0.00,,,0.00,WUHU21623XXSP,2013-02-23 18:03:00,
2013-02-23 13:08:00,79.6,72.3,30.22,South,180,0.0,0.0,78,0.00,,,0.00,WUHU21623XXSP,2013-02-23 18:08:00,
2013-02-23 13:13:00,79.8,72.1,30.21,SSE,157,0.0,0.0,77,0.00,,,0.00,WUHU21623XXSP,2013-02-23 18:13:00,
2013-02-23 13:18:00,80.1,72.4,30.21,SSW,202,0.0,0.0,77,0.00,,,0.00,WUHU21623XXSP,2013-02-23 18:18:00,
2013-02-23 13:23:00,80.1,72.4,30.20,SSW,202,0.0,0.0,77,0.00,,,0.00,WUHU21623XXSP,2013-02-23 18:23:00,
2013-02-23 13:28:00,80.1,72.4,30.20,WSW,247,0.0,0.0,77,0.00,,,0.00,WUHU21623XXSP,2013-02-23 18:28:00,
2013-02-23 13:33:00,80.1,72.4,30.20,West,270,0.0,0.0,77,0.00,,,0.00,WUHU21623XXSP,2013-02-23 18:33:00,
2013-02-23 13:38:00,80.0,72.3,30.19,South,180,0.0,0.0,77,0.00,,,0.00,WUHU21623XXSP,2013-02-23 18:38:00,
2013-02-23 13:43:00,79.6,71.9,30.20,SW,225,0.0,0.0,77,0.00,,,0.00,WUHU21623XXSP,2013-02-23 18:43:00,
2013-02-23 13:48:00,79.4,71.7,30.20,SW,225,0.0,0.0,77,0.00,,,0.00,WUHU21623XXSP,2013-02-23 18:48:00,
2013-02-23 13:53:00,79.4,72.1,30.20,West,270,0.0,0.0,78,0.00,,,0.00,WUHU21623XXSP,2013-02-23 18:53:00,
2013-02-23 13:58:00,79.4,71.7,30.19,SSW,202,0.0,0.0,77,0.00,,,0.00,WUHU21623XXSP,2013-02-23 18:58:00,
2013-02-23 14:03:00,79.4,71.7,30.19,SSE,157,0.0,0.0,77,0.00,,,0.00,WUHU21623XXSP,2013-02-23 19:03:00,
2013-02-23 14:08:00,79.4,71.7,30.19,SW,225,0.0,0.0,77,0.00,,,0.00,WUHU21623XXSP,2013-02-23 19:08:00,
2013-02-23 14:13:00,79.4,72.1,30.19,SSW,202,0.0,0.0,78,0.00,,,0.00,WUHU21623XXSP,2013-02-23 19:13:00,
2013-02-23 14:18:00,79.6,72.3,30.19,SE,135,0.0,0.0,78,0.00,,,0.00,WUHU21623XXSP,2013-02-23 19:18:00,
2013-02-23 14:23:00,79.6,71.9,30.19,SSW,202,0.0,0.0,77,0.00,,,0.00,WUHU21623XXSP,2013-02-23 19:23:00,
2013-02-23 14:28:00,79.4,71.7,30.19,South,180,0.0,0.0,77,0.00,,,0.00,WUHU21623XXSP,2013-02-23 19:28:00,
2013-02-23 14:33:00,79.4,72.1,30.19,South,180,0.0,0.0,78,0.00,,,0.00,WUHU21623XXSP,2013-02-23 19:33:00,
2013-02-23 14:38:00,79.4,71.7,30.18,SW,225,0.0,0.0,77,0.00,,,0.00,WUHU21623XXSP,2013-02-23 19:38:00,
2013-02-23 14:43:00,79.4,71.7,30.18,West,270,0.0,0.0,77,0.00,,,0.00,WUHU21623XXSP,2013-02-23 19:43:00,
2013-02-23 14:48:00,79.2,71.9,30.18,South,180,0.0,0.0,78,0.00,,,0.00,WUHU21623XXSP,2013-02-23 19:48:00,
2013-02-23 14:53:00,79.1,71.8,30.18,SW,225,0.0,0.0,78,0.00,,,0.00,WUHU21623XXSP,2013-02-23 19:53:00,
2013-02-23 14:58:00,79.1,71.8,30.18,SSW,202,0.0,0.0,78,0.00,,,0.00,WUHU21623XXSP,2013-02-23 19:58:00,
2013-02-23 15:03:00,78.9,71.6,30.18,South,180,0.0,0.0,78,0.00,,,0.00,WUHU21623XXSP,2013-02-23 20:03:00,
2013-02-23 15:08:00,79.2,71.9,30.17,SW,225,0.0,0.0,78,0.00,,,0.00,WUHU21623XXSP,2013-02-23 20:08:00,
2013-02-23 15:13:00,79.4,72.1,30.18,South,180,0.0,0.0,78,0.00,,,0.00,WUHU21623XXSP,2013-02-23 20:13:00,
2013-02-23 15:18:00,79.4,72.1,30.18,WSW,247,0.0,0.0,78,0.00,,,0.00,WUHU21623XXSP,2013-02-23 20:18:00,
2013-02-23 15:23:00,79.1,71.8,30.17,SSW,202,0.0,0.0,78,0.00,,,0.00,WUHU21623XXSP,2013-02-23 20:23:00,
2013-02-23 15:28:00,78.7,71.4,30.18,South,180,0.0,0.0,78,0.00,,,0.00,WUHU21623XXSP,2013-02-23 20:28:00,
2013-02-23 15:33:00,78.3,71.4,30.17,SW,225,0.0,0.0,79,0.00,,,0.00,WUHU21623XXSP,2013-02-23 20:33:00,
2013-02-23 15:38:00,78.3,71.4,30.17,South,180,0.0,0.0,79,0.00,,,0.00,WUHU21623XXSP,2013-02-23 20:38:00,
2013-02-23 15:43:00,78.3,71.4,30.17,South,180,0.0,0.0,79,0.00,,,0.00,WUHU21623XXSP,2013-02-23 20:43:00,
2013-02-23 15:48:00,78.5,71.6,30.16,SW,225,0.0,0.0,79,0.00,,,0.00,WUHU21623XXSP,2013-02-23 20:48:00,
2013-02-23 15:53:00,78.9,72.0,30.16,SW,225,0.0,0.0,79,0.00,,,0.00,WUHU21623XXSP,2013-02-23 20:53:00,
2013-02-23 15:58:00,78.9,72.0,30.16,WSW,247,0.0,0.0,79,0.00,,,0.00,WUHU21623XXSP,2013-02-23 20:58:00,
2013-02-23 16:03:00,78.7,71.8,30.16,SSW,202,0.0,0.0,79,0.00,,,0.00,WUHU21623XXSP,2013-02-23 21:03:00,
2013-02-23 16:08:00,78.5,71.6,30.16,South,180,0.0,0.0,79,0.00,,,0.00,WUHU21623XXSP,2013-02-23 21:08:00,
2013-02-23 16:13:00,78.5,71.6,30.16,SW,225,0.0,0.0,79,0.00,,,0.00,WUHU21623XXSP,2013-02-23 21:13:00,
2013-02-23 16:18:00,78.5,71.6,30.16,South,180,0.0,0.0,79,0.00,,,0.00,WUHU21623XXSP,2013-02-23 21:18:00,
2013-02-23 16:23:00,78.0,71.1,30.17,SSW,202,0.0,0.0,79,0.00,,,0.00,WUHU21623XXSP,2013-02-23 21:23:00,
2013-02-23 16:28:00,77.4,70.9,30.16,SSW,202,0.0,0.0,80,0.00,,,0.00,WUHU21623XXSP,2013-02-23 21:28:00,
2013-02-23 16:33:00,76.5,70.3,30.16,SSW,202,0.0,0.0,81,0.00,,,0.00,WUHU21623XXSP,2013-02-23 21:33:00,
2013-02-23 16:38:00,76.4,70.6,30.16,SSW,202,0.0,0.0,82,0.00,,,0.00,WUHU21623XXSP,2013-02-23 21:38:00,
2013-02-23 16:43:00,75.8,70.0,30.16,WSW,247,0.0,0.0,82,0.00,,,0.00,WUHU21623XXSP,2013-02-23 21:43:00,
2013-02-23 16:48:00,75.6,70.1,30.16,South,180,0.0,0.0,83,0.00,,,0.00,WUHU21623XXSP,2013-02-23 21:48:00,
2013-02-23 16:53:00,75.6,70.1,30.17,West,270,0.0,0.0,83,0.00,,,0.00,WUHU21623XXSP,2013-02-23 21:53:00,
2013-02-23 16:58:00,75.3,70.2,30.16,WSW,247,0.0,0.0,84,0.00,,,0.00,WUHU21623XXSP,2013-02-23 21:58:00,
2013-02-23 17:03:00,75.1,70.0,30.16,SSE,157,0.0,0.0,84,0.00,,,0.00,WUHU21623XXSP,2013-02-23 22:03:00,
2013-02-23 17:08:00,74.9,69.8,30.16,SW,225,0.0,0.0,84,0.00,,,0.00,WUHU21623XXSP,2013-02-23 22:08:00,
2013-02-23 17:13:00,74.9,70.1,30.16,South,180,0.0,0.0,85,0.00,,,0.00,WUHU21623XXSP,2013-02-23 22:13:00,
2013-02-23 17:18:00,74.9,70.1,30.17,WSW,247,0.0,0.0,85,0.00,,,0.00,WUHU21623XXSP,2013-02-23 22:18:00,
2013-02-23 17:24:00,74.9,70.1,30.17,WSW,247,0.0,0.0,85,0.00,,,0.00,WUHU21623XXSP,2013-02-23 22:24:00,
2013-02-23 17:29:00,74.7,69.9,30.17,South,180,0.0,0.0,85,0.00,,,0.00,WUHU21623XXSP,2013-02-23 22:29:00,
2013-02-23 17:34:00,74.4,70.0,30.17,WSW,247,0.0,0.0,86,0.00,,,0.00,WUHU21623XXSP,2013-02-23 22:34:00,
2013-02-23 17:39:00,74.0,69.6,30.17,West,270,0.0,0.0,86,0.00,,,0.00,WUHU21623XXSP,2013-02-23 22:39:00,
2013-02-23 17:44:00,73.8,69.4,30.17,South,180,0.0,0.0,86,0.00,,,0.00,WUHU21623XXSP,2013-02-23 22:44:00,
2013-02-23 17:49:00,73.5,69.1,30.17,SSE,157,0.0,0.0,86,0.00,,,0.00,WUHU21623XXSP,2013-02-23 22:49:00,
2013-02-23 17:54:00,73.3,69.2,30.18,SSW,202,0.0,0.0,87,0.00,,,0.00,WUHU21623XXSP,2013-02-23 22:54:00,
2013-02-23 17:59:00,72.9,68.8,30.17,WSW,247,0.0,0.0,87,0.00,,,0.00,WUHU21623XXSP,2013-02-23 22:59:00,
2013-02-23 18:04:00,72.6,68.5,30.18,South,180,0.0,0.0,87,0.00,,,0.00,WUHU21623XXSP,2013-02-23 23:04:00,
2013-02-23 18:09:00,72.2,68.4,30.18,SSW,202,0.0,0.0,88,0.00,,,0.00,WUHU21623XXSP,2013-02-23 23:09:00,
2013-02-23 18:14:00,72.2,68.4,30.18,SW,225,0.0,0.0,88,0.00,,,0.00,WUHU21623XXSP,2013-02-23 23:14:00,
2013-02-23 18:19:00,72.0,68.6,30.18,SSW,202,0.0,0.0,89,0.00,,,0.00,WUHU21623XXSP,2013-02-23 23:19:00,
2013-02-23 18:24:00,71.7,68.3,30.18,South,180,0.0,0.0,89,0.00,,,0.00,WUHU21623XXSP,2013-02-23 23:24:00,
2013-02-23 18:29:00,71.7,68.3,30.19,West,270,0.0,0.0,89,0.00,,,0.00,WUHU21623XXSP,2013-02-23 23:29:00,
2013-02-23 18:34:00,71.5,68.4,30.18,South,180,0.0,0.0,90,0.00,,,0.00,WUHU21623XXSP,2013-02-23 23:34:00,
2013-02-23 18:39:00,71.5,68.4,30.18,South,180,0.0,0.0,90,0.00,,,0.00,WUHU21623XXSP,2013-02-23 23:39:00,
2013-02-23 18:44:00,71.3,68.2,30.18,SW,225,0.0,0.0,90,0.00,,,0.00,WUHU21623XXSP,2013-02-23 23:44:00,
2013-02-23 18:49:00,71.1,68.3,30.18,WSW,247,0.0,0.0,91,0.00,,,0.00,WUHU21623XXSP,2013-02-23 23:49:00,
2013-02-23 18:54:00,71.1,68.3,30.19,WSW,247,0.0,0.0,91,0.00,,,0.00,WUHU21623XXSP,2013-02-23 23:54:00,
2013-02-23 18:59:00,71.0,68.2,30.19,SW,225,0.0,0.0,91,0.00,,,0.00,WUHU21623XXSP,2013-02-23 23:59:00,
2013-02-23 19:04:00,70.8,68.0,30.19,SW,225,0.0,0.0,91,0.00,,,0.00,WUHU21623XXSP,2013-02-24 00:04:00,
2013-02-23 19:09:00,70.8,68.0,30.19,SSW,202,0.0,0.0,91,0.00,,,0.00,WUHU21623XXSP,2013-02-24 00:09:00,
2013-02-23 19:14:00,70.8,68.0,30.19,WSW,247,0.0,0.0,91,0.00,,,0.00,WUHU21623XXSP,2013-02-24 00:14:00,
2013-02-23 19:19:00,70.8,68.3,30.19,SW,225,0.0,0.0,92,0.00,,,0.00,WUHU21623XXSP,2013-02-24 00:19:00,
2013-02-23 19:24:00,70.6,68.1,30.19,SSW,202,0.0,0.0,92,0.00,,,0.00,WUHU21623XXSP,2013-02-24 00:24:00,
2013-02-23 19:29:00,70.4,67.9,30.19,SSE,157,0.0,0.0,92,0.00,,,0.00,WUHU21623XXSP,2013-02-24 00:29:00,
2013-02-23 19:34:00,70.4,67.9,30.19,South,180,0.0,0.0,92,0.00,,,0.00,WUHU21623XXSP,2013-02-24 00:34:00,
2013-02-23 19:39:00,70.4,67.9,30.18,South,180,0.0,0.0,92,0.00,,,0.00,WUHU21623XXSP,2013-02-24 00:39:00,
2013-02-23 19:44:00,70.4,67.9,30.19,SSW,202,0.0,0.0,92,0.00,,,0.00,WUHU21623XXSP,2013-02-24 00:44:00,
2013-02-23 19:49:00,70.4,67.9,30.18,SW,225,0.0,0.0,92,0.00,,,0.00,WUHU21623XXSP,2013-02-24 00:49:00,
2013-02-23 19:54:00,70.4,67.9,30.19,SW,225,0.0,0.0,92,0.00,,,0.00,WUHU21623XXSP,2013-02-24 00:54:00,
2013-02-23 19:59:00,70.2,67.7,30.19,SSW,202,0.0,0.0,92,0.00,,,0.00,WUHU21623XXSP,2013-02-24 00:59:00,
2013-02-23 20:04:00,70.2,67.7,30.19,South,180,0.0,0.0,92,0.00,,,0.00,WUHU21623XXSP,2013-02-24 01:04:00,
2013-02-23 20:09:00,70.2,68.1,30.19,South,180,0.0,0.0,93,0.00,,,0.00,WUHU21623XXSP,2013-02-24 01:09:00,
2013-02-23 20:14:00,70.2,68.1,30.19,SW,225,0.0,0.0,93,0.00,,,0.00,WUHU21623XXSP,2013-02-24 01:14:00,
2013-02-23 20:19:00,70.2,68.1,30.18,South,180,0.0,0.0,93,0.00,,,0.00,WUHU21623XXSP,2013-02-24 01:19:00,
2013-02-23 20:24:00,70.2,68.1,30.19,South,180,0.0,0.0,93,0.00,,,0.00,WUHU21623XXSP,2013-02-24 01:24:00,
2013-02-23 20:29:00,70.4,68.2,30.19,SSE,157,0.0,0.0,93,0.00,,,0.00,WUHU21623XXSP,2013-02-24 01:29:00,
2013-02-23 20:34:00,70.2,68.1,30.19,SW,225,0.0,0.0,93,0.00,,,0.00,WUHU21623XXSP,2013-02-24 01:34:00,
2013-02-23 20:39:00,70.2,68.1,30.19,SSW,202,0.0,0.0,93,0.00,,,0.00,WUHU21623XXSP,2013-02-24 01:39:00,
2013-02-23 20:44:00,70.2,68.1,30.19,West,270,0.0,0.0,93,0.00,,,0.00,WUHU21623XXSP,2013-02-24 01:44:00,
2013-02-23 20:49:00,70.2,68.1,30.19,SSW,202,0.0,0.0,93,0.00,,,0.00,WUHU21623XXSP,2013-02-24 01:49:00,
2013-02-23 20:54:00,70.2,68.1,30.19,SW,225,0.0,0.0,93,0.00,,,0.00,WUHU21623XXSP,2013-02-24 01:54:00,
2013-02-23 20:59:00,70.2,68.1,30.19,SSE,157,0.0,0.0,93,0.00,,,0.00,WUHU21623XXSP,2013-02-24 01:59:00,
2013-02-23 21:05:00,70.2,68.1,30.19,SW,225,0.0,0.0,93,0.00,,,0.00,WUHU21623XXSP,2013-02-24 02:05:00,
2013-02-23 21:10:00,70.2,68.1,30.19,South,180,0.0,0.0,93,0.00,,,0.00,WUHU21623XXSP,2013-02-24 02:10:00,
2013-02-23 21:15:00,70.2,68.1,30.19,South,180,0.0,0.0,93,0.00,,,0.00,WUHU21623XXSP,2013-02-24 02:15:00,
2013-02-23 21:20:00,70.1,68.0,30.19,SSE,157,0.0,0.0,93,0.00,,,0.00,WUHU21623XXSP,2013-02-24 02:20:00,
2013-02-23 21:25:00,70.1,68.0,30.20,SW,225,0.0,0.0,93,0.00,,,0.00,WUHU21623XXSP,2013-02-24 02:25:00,
2013-02-23 21:30:00,69.9,68.1,30.20,SSW,202,0.0,0.0,94,0.00,,,0.00,WUHU21623XXSP,2013-02-24 02:30:00,
2013-02-23 21:35:00,69.9,68.1,30.19,SSE,157,0.0,0.0,94,0.00,,,0.00,WUHU21623XXSP,2013-02-24 02:35:00,
2013-02-23 21:40:00,69.7,67.9,30.20,SE,135,0.0,0.0,94,0.00,,,0.00,WUHU21623XXSP,2013-02-24 02:40:00,
2013-02-23 21:45:00,69.7,67.9,30.19,SW,225,0.0,0.0,94,0.00,,,0.00,WUHU21623XXSP,2013-02-24 02:45:00,
2013-02-23 21:50:00,69.5,67.7,30.20,SSE,157,0.0,0.0,94,0.00,,,0.00,WUHU21623XXSP,2013-02-24 02:50:00,
2013-02-23 21:55:00,69.5,67.7,30.20,SSW,202,0.0,0.0,94,0.00,,,0.00,WUHU21623XXSP,2013-02-24 02:55:00,
2013-02-23 22:00:00,69.3,67.5,30.20,South,180,0.0,0.0,94,0.00,,,0.00,WUHU21623XXSP,2013-02-24 03:00:00,
2013-02-23 22:05:00,69.3,67.5,30.20,South,180,0.0,0.0,94,0.00,,,0.00,WUHU21623XXSP,2013-02-24 03:05:00,
2013-02-23 22:10:00,69.2,67.4,30.20,South,180,0.0,0.0,94,0.00,,,0.00,WUHU21623XXSP,2013-02-24 03:10:00,
2013-02-23 22:15:00,69.0,67.2,30.20,SSW,202,0.0,0.0,94,0.00,,,0.00,WUHU21623XXSP,2013-02-24 03:15:00,
2013-02-23 22:20:00,69.0,67.2,30.20,SSW,202,0.0,0.0,94,0.00,,,0.00,WUHU21623XXSP,2013-02-24 03:20:00,
2013-02-23 22:25:00,69.0,67.2,30.20,South,180,0.0,0.0,94,0.00,,,0.00,WUHU21623XXSP,2013-02-24 03:25:00,
2013-02-23 22:30:00,68.8,67.0,30.20,SE,135,0.0,0.0,94,0.00,,,0.00,WUHU21623XXSP,2013-02-24 03:30:00,
2013-02-23 22:35:00,68.6,66.8,30.20,SSW,202,0.0,0.0,94,0.00,,,0.00,WUHU21623XXSP,2013-02-24 03:35:00,
2013-02-23 22:40:00,68.6,66.8,30.20,South,180,0.0,0.0,94,0.00,,,0.00,WUHU21623XXSP,2013-02-24 03:40:00,
2013-02-23 22:45:00,68.6,66.8,30.21,South,180,0.0,0.0,94,0.00,,,0.00,WUHU21623XXSP,2013-02-24 03:45:00,
2013-02-23 22:50:00,68.6,66.8,30.21,South,180,0.0,0.0,94,0.00,,,0.00,WUHU21623XXSP,2013-02-24 03:50:00,
2013-02-23 22:55:00,68.6,66.8,30.21,SSW,202,0.0,0.0,94,0.00,,,0.00,WUHU21623XXSP,2013-02-24 03:55:00,
2013-02-23 23:00:00,68.6,66.8,30.21,WSW,247,0.0,0.0,94,0.00,,,0.00,WUHU21623XXSP,2013-02-24 04:00:00,
2013-02-23 23:05:00,68.6,66.8,30.21,SW,225,0.0,0.0,94,0.00,,,0.00,WUHU21623XXSP,2013-02-24 04:05:00,
2013-02-23 23:10:00,68.6,66.8,30.20,SW,225,0.0,0.0,94,0.00,,,0.00,WUHU21623XXSP,2013-02-24 04:10:00,
2013-02-23 23:15:00,68.6,66.8,30.20,SSW,202,0.0,0.0,94,0.00,,,0.00,WUHU21623XXSP,2013-02-24 04:15:00,
2013-02-23 23:20:00,68.4,66.6,30.19,South,180,0.0,0.0,94,0.00,,,0.00,WUHU21623XXSP,2013-02-24 04:20:00,
2013-02-23 23:25:00,68.4,66.6,30.19,SW,225,0.0,0.0,94,0.00,,,0.00,WUHU21623XXSP,2013-02-24 04:25:00,
2013-02-23 23:30:00,68.4,66.9,30.19,SSE,157,0.0,0.0,95,0.00,,,0.00,WUHU21623XXSP,2013-02-24 04:30:00,
2013-02-23 23:35:00,68.4,66.9,30.19,South,180,0.0,0.0,95,0.00,,,0.00,WUHU21623XXSP,2013-02-24 04:35:00,
2013-02-23 23:40:00,68.4,66.9,30.19,South,180,0.0,0.0,95,0.00,,,0.00,WUHU21623XXSP,2013-02-24 04:40:00,
2013-02-23 23:45:00,68.4,66.9,30.19,SSE,157,0.0,0.0,95,0.00,,,0.00,WUHU21623XXSP,2013-02-24 04:45:00,
2013-02-23 23:50:00,68.3,66.8,30.19,SSW,202,0.0,0.0,95,0.00,,,0.00,WUHU21623XXSP,2013-02-24 04:50:00,
2013-02-23 23:55:00,68.3,66.8,30.19,South,180,0.0,0.0,95,0.00,,,0.00,WUHU21623XXSP,2013-02-24 04:55:00,